createdAt,value
2022-12-09T00:02:02.636Z,100269.59
2022-12-09T00:04:29.472Z,100267.66
2022-12-09T00:06:55.963Z,100264.94
2022-12-09T00:09:22.581Z,100260.56
2022-12-09T00:11:49.136Z,100260.03
2022-12-09T00:14:15.651Z,100257.97
2022-12-09T00:16:42.247Z,100257.25
2022-12-09T00:19:08.891Z,100254.81
2022-12-09T00:21:35.426Z,100248.66
2022-12-09T00:24:07.676Z,100251.94
2022-12-09T00:26:34.477Z,100252.75
2022-12-09T00:29:01.677Z,100260.56
2022-12-09T00:31:34.138Z,100253.72
2022-12-09T00:34:03.671Z,100256.59
2022-12-09T00:36:30.221Z,100262.34
2022-12-09T00:38:58.453Z,100255.34
2022-12-09T00:41:25.729Z,100258.91
2022-12-09T00:43:52.555Z,100253.56
2022-12-09T00:46:19.125Z,100262.19
2022-12-09T00:48:46.565Z,100256.31
2022-12-09T00:51:16.488Z,100258.53
2022-12-09T00:53:44.019Z,100251.38
2022-12-09T00:56:10.694Z,100260.69
2022-12-09T00:58:37.260Z,100250.16
2022-12-09T01:01:04.142Z,100258.91
2022-12-09T01:03:30.989Z,100254.66
2022-12-09T01:05:57.956Z,100255.91
2022-12-09T01:08:24.558Z,100250.44
2022-12-09T01:10:51.124Z,100257.56
2022-12-09T01:13:17.662Z,100250.50
2022-12-09T01:15:44.879Z,100252.97
2022-12-09T01:18:12.606Z,100254.81
2022-12-09T01:20:39.357Z,100260.78
2022-12-09T01:23:05.849Z,100264.72
2022-12-09T01:25:32.351Z,100269.25
2022-12-09T01:27:58.744Z,100272.50
2022-12-09T01:30:25.362Z,100263.66
2022-12-09T01:32:51.889Z,100265.75
2022-12-09T01:35:18.880Z,100262.97
2022-12-09T01:37:45.261Z,100267.91
2022-12-09T01:40:16.935Z,100270.13
2022-12-09T01:42:44.237Z,100268.19
2022-12-09T01:45:19.908Z,100265.31
2022-12-09T01:47:54.378Z,100266.63
2022-12-09T01:50:21.355Z,100267.97
2022-12-09T01:52:50.039Z,100267.81
2022-12-09T01:55:17.035Z,100265.75
2022-12-09T01:57:45.256Z,100270.16
2022-12-09T02:00:13.247Z,100259.34
2022-12-09T02:02:43.692Z,100257.03
2022-12-09T02:05:11.384Z,100257.84
2022-12-09T02:07:38.172Z,100254.31
2022-12-09T02:10:11.019Z,100252.06
2022-12-09T02:12:47.293Z,100256.28
2022-12-09T02:15:21.030Z,100253.91
2022-12-09T02:17:47.784Z,100250.22
2022-12-09T02:20:39.097Z,100252.84
2022-12-09T02:23:11.509Z,100246.56
2022-12-09T02:26:00.866Z,100242.84
2022-12-09T02:28:45.952Z,100241.19
2022-12-09T02:31:31.146Z,100232.59
2022-12-09T02:34:12.229Z,100231.91
2022-12-09T02:36:51.681Z,100230.66
2022-12-09T02:39:26.039Z,100225.28
2022-12-09T02:41:54.763Z,100233.78
2022-12-09T02:44:24.376Z,100228.88
2022-12-09T02:46:53.334Z,100228.72
2022-12-09T02:49:24.085Z,100231.16
2022-12-09T02:51:51.127Z,100237.78
2022-12-09T02:54:20.544Z,100234.28
2022-12-09T02:56:53.700Z,100234.38
2022-12-09T02:59:20.763Z,100225.91
2022-12-09T03:02:18.618Z,100218.59
2022-12-09T03:04:55.031Z,100221.38
2022-12-09T03:08:00.415Z,100212.66
2022-12-09T03:10:38.534Z,100214.44
2022-12-09T03:13:23.834Z,100214.16
2022-12-09T03:16:02.873Z,100211.16
2022-12-09T03:18:31.808Z,100219.25
2022-12-09T03:20:58.647Z,100216.97
2022-12-09T03:23:27.591Z,100219.00
2022-12-09T03:25:55.477Z,100217.91
2022-12-09T03:28:30.541Z,100217.78
2022-12-09T03:31:03.113Z,100206.13
2022-12-09T03:33:31.424Z,100204.19
2022-12-09T03:36:02.592Z,100209.22
2022-12-09T03:38:35.062Z,100208.19
2022-12-09T03:41:23.725Z,100208.94
2022-12-09T03:43:56.088Z,100204.13
2022-12-09T03:46:23.753Z,100213.09
2022-12-09T03:48:50.739Z,100209.31
2022-12-09T03:51:29.544Z,100211.22
2022-12-09T03:54:18.720Z,100199.03
2022-12-09T03:56:49.286Z,100202.63
2022-12-09T03:59:16.191Z,100200.03
2022-12-09T04:01:45.250Z,100195.09
2022-12-09T04:04:12.221Z,100196.09
2022-12-09T04:06:39.017Z,100198.38
2022-12-09T04:09:06.171Z,100198.69
2022-12-09T04:11:33.711Z,100197.19
2022-12-09T04:14:00.472Z,100194.44
2022-12-09T04:16:27.189Z,100200.03
2022-12-09T04:18:54.103Z,100195.63
2022-12-09T04:21:20.796Z,100185.09
2022-12-09T04:23:47.459Z,100185.75
2022-12-09T04:26:17.609Z,100185.97
2022-12-09T04:28:44.113Z,100183.63
2022-12-09T04:31:13.174Z,100178.75
2022-12-09T04:33:40.636Z,100181.34
2022-12-09T04:36:09.769Z,100180.25
2022-12-09T04:38:36.200Z,100187.06
2022-12-09T04:41:03.972Z,100179.03
2022-12-09T04:43:31.441Z,100179.03
2022-12-09T04:46:03.495Z,100175.25
2022-12-09T04:48:30.377Z,100175.97
2022-12-09T04:50:57.213Z,100174.22
2022-12-09T04:53:24.287Z,100167.59
2022-12-09T04:55:59.495Z,100170.47
2022-12-09T04:58:26.191Z,100174.47
2022-12-09T05:00:52.766Z,100173.06
2022-12-09T05:03:19.173Z,100177.75
2022-12-09T05:05:46.009Z,100178.03
2022-12-09T05:08:12.688Z,100177.41
2022-12-09T05:10:39.751Z,100174.81
2022-12-09T05:13:07.148Z,100182.09
2022-12-09T05:15:33.664Z,100183.16
2022-12-09T05:18:02.377Z,100178.97
2022-12-09T05:20:29.877Z,100177.06
2022-12-09T05:22:56.701Z,100182.41
2022-12-09T05:25:24.003Z,100185.38
2022-12-09T05:27:50.889Z,100187.72
2022-12-09T05:30:17.432Z,100178.97
2022-12-09T05:32:44.259Z,100175.53
2022-12-09T05:35:11.513Z,100171.31
2022-12-09T05:37:38.014Z,100168.72
2022-12-09T05:40:06.100Z,100172.44
2022-12-09T05:42:36.479Z,100168.59
2022-12-09T05:45:08.273Z,100160.25
2022-12-09T05:47:34.701Z,100166.53
2022-12-09T05:50:06.126Z,100165.88
2022-12-09T05:52:36.472Z,100160.97
2022-12-09T05:55:08.836Z,100155.91
2022-12-09T05:57:35.907Z,100163.38
2022-12-09T06:00:05.247Z,100166.38
2022-12-09T06:02:33.032Z,100164.06
2022-12-09T06:05:00.103Z,100170.13
2022-12-09T06:07:26.954Z,100167.13
2022-12-09T06:09:54.026Z,100163.19
2022-12-09T06:12:20.494Z,100158.53
2022-12-09T06:14:47.189Z,100155.66
2022-12-09T06:17:14.275Z,100162.34
2022-12-09T06:19:40.862Z,100161.84
2022-12-09T06:22:07.795Z,100154.97
2022-12-09T06:24:35.217Z,100164.34
2022-12-09T06:27:02.162Z,100160.28
2022-12-09T06:29:28.876Z,100157.16
2022-12-09T06:31:55.592Z,100156.88
2022-12-09T06:34:22.349Z,100155.91
2022-12-09T06:36:49.163Z,100158.88
2022-12-09T06:39:15.912Z,100160.53
2022-12-09T06:41:43.485Z,100159.63
2022-12-09T06:44:18.407Z,100157.81
2022-12-09T06:46:49.696Z,100156.63
2022-12-09T06:49:16.645Z,100162.38
2022-12-09T06:51:43.371Z,100150.88
2022-12-09T06:54:10.354Z,100154.56
2022-12-09T06:56:36.867Z,100151.81
2022-12-09T06:59:06.650Z,100159.41
2022-12-09T07:01:33.663Z,100164.34
2022-12-09T07:04:01.139Z,100166.94
2022-12-09T07:06:39.683Z,100164.97
2022-12-09T07:09:15.846Z,100165.34
2022-12-09T07:11:43.395Z,100169.78
2022-12-09T07:14:10.740Z,100170.72
2022-12-09T07:16:38.329Z,100171.53
2022-12-09T07:19:06.094Z,100168.84
2022-12-09T07:21:33.810Z,100170.47
2022-12-09T07:24:02.262Z,100174.59
2022-12-09T07:26:33.650Z,100175.84
2022-12-09T07:29:04.544Z,100181.34
2022-12-09T07:31:31.853Z,100183.53
2022-12-09T07:33:59.956Z,100175.63
2022-12-09T07:36:29.669Z,100187.19
2022-12-09T07:38:58.104Z,100186.75
2022-12-09T07:41:25.229Z,100190.72
2022-12-09T07:43:51.773Z,100189.16
2022-12-09T07:46:20.801Z,100181.94
2022-12-09T07:48:49.336Z,100187.66
2022-12-09T07:51:16.422Z,100189.75
2022-12-09T07:53:43.296Z,100193.13
2022-12-09T07:56:14.783Z,100193.81
2022-12-09T07:58:42.461Z,100194.50
2022-12-09T08:01:12.063Z,100198.16
2022-12-09T08:03:40.306Z,100204.03
2022-12-09T08:06:07.529Z,100197.22
2022-12-09T08:08:34.853Z,100205.78
2022-12-09T08:11:13.071Z,100209.44
2022-12-09T08:13:42.259Z,100212.47
2022-12-09T08:16:10.827Z,100209.81
2022-12-09T08:18:38.143Z,100210.13
2022-12-09T08:21:13.409Z,100217.50
2022-12-09T08:23:40.269Z,100218.19
2022-12-09T08:26:07.521Z,100212.34
2022-12-09T08:28:34.298Z,100209.13
2022-12-09T08:31:10.597Z,100211.19
2022-12-09T08:33:38.429Z,100211.31
2022-12-09T08:36:10.889Z,100208.63
2022-12-09T08:38:37.713Z,100202.78
2022-12-09T08:41:17.595Z,100213.28
2022-12-09T08:43:45.038Z,100205.50
2022-12-09T08:46:12.018Z,100200.88
2022-12-09T08:48:40.845Z,100207.31
2022-12-09T08:51:09.362Z,100202.13
2022-12-09T08:53:35.928Z,100196.69
2022-12-09T08:56:13.835Z,100205.69
2022-12-09T08:58:41.438Z,100201.34
2022-12-09T09:01:14.167Z,100199.97
2022-12-09T09:03:41.675Z,100202.31
2022-12-09T09:06:10.777Z,100191.66
2022-12-09T09:08:39.184Z,100198.50
2022-12-09T09:11:11.503Z,100196.56
2022-12-09T09:13:39.940Z,100197.94
2022-12-09T09:16:16.715Z,100196.59
2022-12-09T09:18:44.590Z,100201.50
2022-12-09T09:21:13.962Z,100205.19
2022-12-09T09:23:42.104Z,100215.00
2022-12-09T09:26:17.179Z,100211.31
2022-12-09T09:28:44.562Z,100209.56
2022-12-09T09:31:13.542Z,100211.88
2022-12-09T09:33:40.701Z,100219.09
2022-12-09T09:36:11.639Z,100215.00
2022-12-09T09:38:38.485Z,100222.09
2022-12-09T09:41:34.166Z,100219.63
2022-12-09T09:44:01.968Z,100218.97
2022-12-09T09:46:38.761Z,100222.25
2022-12-09T09:49:10.492Z,100223.19
2022-12-09T09:51:37.386Z,100219.91
2022-12-09T09:54:08.743Z,100220.84
2022-12-09T09:56:43.811Z,100219.75
2022-12-09T09:59:39.489Z,100213.31
2022-12-09T10:02:12.662Z,100215.78
2022-12-09T10:05:07.539Z,100205.25
2022-12-09T10:07:48.904Z,100203.13
2022-12-09T10:10:32.414Z,100205.81
2022-12-09T10:13:18.598Z,100197.94
2022-12-09T10:16:14.346Z,100193.59
2022-12-09T10:19:07.677Z,100191.06
2022-12-09T10:21:41.066Z,100196.31
2022-12-09T10:24:20.034Z,100194.47
2022-12-09T10:26:57.058Z,100192.00
2022-12-09T10:29:43.383Z,100186.13
2022-12-09T10:32:17.100Z,100183.38
2022-12-09T10:34:44.204Z,100179.50
2022-12-09T10:37:25.857Z,100189.31
2022-12-09T10:40:15.985Z,100172.75
2022-12-09T10:43:10.269Z,100176.41
2022-12-09T10:48:47.566Z,100170.16
2022-12-09T10:51:16.620Z,100176.97
2022-12-09T10:54:21.875Z,100169.50
2022-12-09T10:57:12.503Z,100170.72
2022-12-09T10:59:40.907Z,100163.84
2022-12-09T11:02:11.088Z,100163.59
2022-12-09T11:04:44.264Z,100169.34
2022-12-09T11:07:25.408Z,100170.88
2022-12-09T11:09:58.774Z,100165.66
2022-12-09T11:12:30.976Z,100167.28
2022-12-09T11:15:24.157Z,100165.50
2022-12-09T11:18:25.671Z,100167.38
2022-12-09T11:21:01.169Z,100166.25
2022-12-09T11:23:29.398Z,100163.50
2022-12-09T11:25:58.844Z,100167.38
2022-12-09T11:28:33.025Z,100164.63
2022-12-09T11:31:33.959Z,100161.19
2022-12-09T11:34:02.745Z,100159.19
2022-12-09T11:36:44.059Z,100159.69
2022-12-09T11:39:25.395Z,100163.50
2022-12-09T11:42:17.041Z,100157.47
2022-12-09T11:44:58.237Z,100162.00
2022-12-09T11:47:50.488Z,100156.50
2022-12-09T11:50:25.833Z,100154.25
2022-12-09T11:53:23.544Z,100152.00
2022-12-09T11:55:56.367Z,100148.38
2022-12-09T11:58:30.660Z,100148.47
2022-12-09T12:01:05.725Z,100146.72
2022-12-09T12:03:41.282Z,100145.44
2022-12-09T12:06:22.546Z,100137.00
2022-12-09T12:09:31.271Z,100144.16
2022-12-09T12:12:02.806Z,100142.34
2022-12-09T12:14:30.322Z,100142.38
2022-12-09T12:17:15.452Z,100139.78
2022-12-09T12:19:45.434Z,100139.13
2022-12-09T12:22:33.027Z,100145.84
2022-12-09T12:25:28.941Z,100130.06
2022-12-09T12:28:17.225Z,100127.84
2022-12-09T12:30:58.468Z,100122.00
2022-12-09T12:34:07.856Z,100118.56
2022-12-09T12:36:55.956Z,100116.38
2022-12-09T12:39:22.286Z,100109.47
2022-12-09T12:42:29.915Z,100116.66
2022-12-09T12:45:36.336Z,100107.03
2022-12-09T12:48:41.907Z,100108.75
2022-12-09T12:51:15.085Z,100108.00
2022-12-09T12:53:52.798Z,100106.06
2022-12-09T12:56:30.385Z,100116.44
2022-12-09T12:59:07.675Z,100117.69
2022-12-09T13:01:51.209Z,100115.38
2022-12-09T13:04:24.005Z,100114.88
2022-12-09T13:07:15.311Z,100112.28
2022-12-09T13:09:56.241Z,100112.63
2022-12-09T13:12:45.635Z,100113.41
2022-12-09T13:15:16.329Z,100112.00
2022-12-09T13:17:46.213Z,100111.22
2022-12-09T13:20:23.742Z,100104.59
2022-12-09T13:23:15.664Z,100110.16
2022-12-09T13:25:56.659Z,100103.50
2022-12-09T13:28:43.867Z,100102.78
2022-12-09T13:31:10.604Z,100102.84
2022-12-09T13:33:43.139Z,100089.47
2022-12-09T13:36:22.716Z,100086.06
2022-12-09T13:38:49.624Z,100097.47
2022-12-09T13:41:31.443Z,100091.22
2022-12-09T13:44:12.709Z,100098.44
2022-12-09T13:46:42.712Z,100096.53
2022-12-09T13:49:18.237Z,100100.88
2022-12-09T13:51:52.997Z,100101.34
2022-12-09T13:54:30.123Z,100104.63
2022-12-09T13:57:23.733Z,100102.81
2022-12-09T13:59:56.036Z,100103.44
2022-12-09T14:02:28.402Z,100105.06
2022-12-09T14:05:05.852Z,100109.44
2022-12-09T14:07:39.250Z,100109.50
2022-12-09T14:10:06.655Z,100111.00
2022-12-09T14:12:33.150Z,100105.84
2022-12-09T14:15:19.391Z,100112.47
2022-12-09T14:17:46.300Z,100119.03
2022-12-09T14:20:32.579Z,100115.28
2022-12-09T14:23:03.726Z,100119.75
2022-12-09T14:25:33.503Z,100113.41
2022-12-09T14:28:11.881Z,100126.19
2022-12-09T14:30:49.897Z,100136.09
2022-12-09T14:33:23.739Z,100123.75
2022-12-09T14:36:01.354Z,100130.31
2022-12-09T14:38:42.129Z,100133.94
2022-12-09T14:41:29.791Z,100132.91
2022-12-09T14:44:18.859Z,100134.31
2022-12-09T14:46:49.776Z,100133.06
2022-12-09T14:49:25.195Z,100133.69
2022-12-09T14:52:01.610Z,100128.53
2022-12-09T14:54:35.983Z,100141.47
2022-12-09T14:57:17.528Z,100133.00
2022-12-09T14:59:52.172Z,100139.09
2022-12-09T15:02:27.095Z,100138.03
2022-12-09T15:04:54.601Z,100138.44
2022-12-09T15:07:25.103Z,100137.63
2022-12-09T15:10:01.870Z,100136.59
2022-12-09T15:12:50.204Z,100133.97
2022-12-09T15:15:25.355Z,100143.75
2022-12-09T15:18:15.123Z,100146.09
2022-12-09T15:20:42.293Z,100145.31
2022-12-09T15:23:20.603Z,100142.81
2022-12-09T15:25:56.042Z,100144.50
2022-12-09T15:28:26.827Z,100140.72
2022-12-09T15:31:21.425Z,100149.31
2022-12-09T15:33:51.845Z,100148.38
2022-12-09T15:36:40.044Z,100153.16
2022-12-09T15:39:21.305Z,100153.56
2022-12-09T15:42:08.178Z,100151.38
2022-12-09T15:44:48.189Z,100157.53
2022-12-09T15:47:30.017Z,100163.56
2022-12-09T15:50:04.459Z,100163.56
2022-12-09T15:52:38.175Z,100161.78
2022-12-09T15:55:07.275Z,100171.59
2022-12-09T15:57:35.611Z,100165.31
2022-12-09T16:00:03.606Z,100168.16
2022-12-09T16:02:34.735Z,100170.44
2022-12-09T16:05:05.447Z,100159.81
2022-12-09T16:07:32.868Z,100158.69
2022-12-09T16:10:16.930Z,100159.25
2022-12-09T16:12:43.954Z,100150.91
2022-12-09T16:15:13.632Z,100154.72
2022-12-09T16:17:54.914Z,100159.50
2022-12-09T16:20:36.334Z,100166.31
2022-12-09T16:23:04.738Z,100172.28
2022-12-09T16:25:42.928Z,100174.03
2022-12-09T16:28:23.595Z,100173.63
2022-12-09T16:30:55.038Z,100176.41
2022-12-09T16:33:24.217Z,100173.19
2022-12-09T16:36:02.539Z,100174.69
2022-12-09T16:38:30.986Z,100173.22
2022-12-09T16:41:01.809Z,100184.31
2022-12-09T16:43:30.325Z,100175.22
2022-12-09T16:46:19.425Z,100178.19
2022-12-09T16:48:48.094Z,100165.66
2022-12-09T16:51:17.615Z,100168.78
2022-12-09T16:53:45.205Z,100175.72
2022-12-09T16:56:26.357Z,100176.25
2022-12-09T16:58:53.584Z,100173.13
2022-12-09T17:01:22.308Z,100182.03
2022-12-09T17:03:53.565Z,100184.47
2022-12-09T17:06:20.796Z,100185.47
2022-12-09T17:08:47.228Z,100184.28
2022-12-09T17:11:14.510Z,100193.66
2022-12-09T17:13:40.969Z,100193.03
2022-12-09T17:16:08.051Z,100194.00
2022-12-09T17:18:35.339Z,100194.16
2022-12-09T17:21:12.781Z,100187.31
2022-12-09T17:23:40.448Z,100198.25
2022-12-09T17:26:10.790Z,100195.53
2022-12-09T17:28:38.403Z,100199.19
2022-12-09T17:31:14.640Z,100192.50
2022-12-09T17:33:41.371Z,100195.13
2022-12-09T17:36:08.078Z,100196.66
2022-12-09T17:38:34.629Z,100197.09
2022-12-09T17:41:16.067Z,100208.13
2022-12-09T17:43:43.144Z,100205.13
2022-12-09T17:46:10.424Z,100205.69
2022-12-09T17:48:37.029Z,100207.19
2022-12-09T17:51:09.118Z,100213.59
2022-12-09T17:53:37.226Z,100204.47
2022-12-09T17:56:12.307Z,100213.31
2022-12-09T17:58:40.162Z,100208.28
2022-12-09T18:01:17.215Z,100211.97
2022-12-09T18:04:04.350Z,100220.16
2022-12-09T18:06:34.766Z,100221.66
2022-12-09T18:09:03.903Z,100226.13
2022-12-09T18:11:30.402Z,100225.38
2022-12-09T18:13:56.807Z,100225.50
2022-12-09T18:16:23.457Z,100219.22
2022-12-09T18:18:50.429Z,100219.38
2022-12-09T18:21:19.498Z,100227.66
2022-12-09T18:23:46.483Z,100229.44
2022-12-09T18:26:15.294Z,100226.41
2022-12-09T18:28:42.132Z,100231.78
2022-12-09T18:31:11.202Z,100240.81
2022-12-09T18:33:38.734Z,100240.66
2022-12-09T18:36:10.903Z,100242.03
2022-12-09T18:38:38.262Z,100236.84
2022-12-09T18:41:05.039Z,100238.75
2022-12-09T18:43:35.990Z,100242.00
2022-12-09T18:46:08.719Z,100246.50
2022-12-09T18:48:35.774Z,100244.84
2022-12-09T18:51:02.126Z,100247.88
2022-12-09T18:53:29.024Z,100247.44
2022-12-09T18:55:55.407Z,100256.16
2022-12-09T18:58:36.831Z,100249.75
2022-12-09T19:01:21.088Z,100256.00
2022-12-09T19:03:48.132Z,100250.91
2022-12-09T19:06:23.456Z,100255.94
2022-12-09T19:08:55.228Z,100258.41
2022-12-09T19:11:23.934Z,100256.09
2022-12-09T19:13:50.418Z,100253.50
2022-12-09T19:16:16.873Z,100255.50
2022-12-09T19:18:43.658Z,100269.44
2022-12-09T19:21:18.229Z,100265.56
2022-12-09T19:23:46.872Z,100266.09
2022-12-09T19:26:24.364Z,100263.34
2022-12-09T19:28:53.285Z,100273.25
2022-12-09T19:31:28.219Z,100268.84
2022-12-09T19:34:03.846Z,100267.91
2022-12-09T19:36:33.832Z,100266.94
2022-12-09T19:39:01.528Z,100265.31
2022-12-09T19:41:28.375Z,100273.84
2022-12-09T19:43:55.947Z,100277.13
2022-12-09T19:46:22.816Z,100277.38
2022-12-09T19:48:49.394Z,100269.44
2022-12-09T19:51:18.040Z,100276.69
2022-12-09T19:53:45.193Z,100285.03
2022-12-09T19:56:18.102Z,100279.97
2022-12-09T19:58:45.449Z,100280.66
2022-12-09T20:01:23.921Z,100285.00
2022-12-09T20:03:55.929Z,100279.97
2022-12-09T20:06:22.661Z,100293.13
2022-12-09T20:08:49.131Z,100277.75
2022-12-09T20:11:21.259Z,100282.41
2022-12-09T20:13:48.250Z,100285.19
2022-12-09T20:16:18.017Z,100287.06
2022-12-09T20:18:45.377Z,100290.09
2022-12-09T20:21:13.372Z,100289.16
2022-12-09T20:23:41.150Z,100288.72
2022-12-09T20:26:12.239Z,100286.66
2022-12-09T20:28:40.879Z,100296.09
2022-12-09T20:31:11.458Z,100288.88
2022-12-09T20:33:38.321Z,100288.56
2022-12-09T20:36:14.233Z,100287.63
2022-12-09T20:38:40.686Z,100292.00
2022-12-09T20:41:12.475Z,100297.16
2022-12-09T20:43:44.461Z,100296.25
2022-12-09T20:46:13.448Z,100296.72
2022-12-09T20:48:40.435Z,100310.38
2022-12-09T20:51:09.951Z,100297.84
2022-12-09T20:53:36.725Z,100301.13
2022-12-09T20:56:04.151Z,100299.22
2022-12-09T20:58:30.640Z,100301.72
2022-12-09T21:01:04.629Z,100301.81
2022-12-09T21:03:31.031Z,100306.72
2022-12-09T21:05:58.428Z,100310.00
2022-12-09T21:08:29.918Z,100304.69
2022-12-09T21:11:06.182Z,100303.03
2022-12-09T21:13:36.203Z,100300.84
2022-12-09T21:16:16.025Z,100298.38
2022-12-09T21:18:43.669Z,100303.44
2022-12-09T21:21:10.363Z,100311.34
2022-12-09T21:23:37.487Z,100310.06
2022-12-09T21:26:06.281Z,100303.41
2022-12-09T21:28:33.505Z,100309.50
2022-12-09T21:31:05.739Z,100317.38
2022-12-09T21:33:32.148Z,100310.97
2022-12-09T21:35:59.067Z,100315.56
2022-12-09T21:38:25.454Z,100311.06
2022-12-09T21:40:52.162Z,100315.00
2022-12-09T21:43:18.513Z,100313.22
2022-12-09T21:45:44.917Z,100312.09
2022-12-09T21:48:14.747Z,100309.50
2022-12-09T21:50:41.237Z,100316.44
2022-12-09T21:53:07.635Z,100316.72
2022-12-09T21:55:34.314Z,100322.97
2022-12-09T21:58:00.692Z,100319.94
2022-12-09T22:00:27.143Z,100318.31
2022-12-09T22:02:54.388Z,100320.22
2022-12-09T22:05:20.893Z,100319.63
2022-12-09T22:07:50.143Z,100321.50
2022-12-09T22:10:16.675Z,100319.66
2022-12-09T22:12:45.966Z,100318.16
2022-12-09T22:15:12.638Z,100317.41
2022-12-09T22:17:39.233Z,100319.56
2022-12-09T22:20:49.176Z,100315.19
2022-12-09T22:22:55.299Z,100316.72
2022-12-09T22:25:21.762Z,100320.13
2022-12-09T22:27:48.124Z,100323.41
2022-12-09T22:30:14.543Z,100325.44
2022-12-09T22:32:43.491Z,100325.06
2022-12-09T22:35:12.172Z,100333.19
2022-12-09T22:37:45.606Z,100327.75
2022-12-09T22:40:12.344Z,100330.66
2022-12-09T22:42:38.785Z,100333.69
2022-12-09T22:45:05.968Z,100334.81
2022-12-09T22:47:32.693Z,100334.13
2022-12-09T22:49:59.143Z,100335.66
2022-12-09T22:52:25.474Z,100331.41
2022-12-09T22:54:51.828Z,100341.91
2022-12-09T22:57:18.210Z,100340.69
2022-12-09T22:59:44.635Z,100334.31
2022-12-09T23:02:11.130Z,100336.81
2022-12-09T23:04:37.533Z,100325.63
2022-12-09T23:07:03.945Z,100331.31
2022-12-09T23:09:30.326Z,100327.06
2022-12-09T23:11:56.723Z,100326.13
2022-12-09T23:14:23.141Z,100330.16
2022-12-09T23:16:49.625Z,100324.44
2022-12-09T23:19:16.006Z,100323.97
2022-12-09T23:21:43.091Z,100325.53
2022-12-09T23:24:20.985Z,100329.22
2022-12-09T23:26:49.129Z,100329.44
2022-12-09T23:29:16.159Z,100333.22
2022-12-09T23:31:43.443Z,100336.44
2022-12-09T23:34:12.075Z,100328.34
2022-12-09T23:36:41.034Z,100338.34
2022-12-09T23:39:11.324Z,100350.81
2022-12-09T23:41:39.390Z,100344.38
2022-12-09T23:44:11.030Z,100349.41
2022-12-09T23:46:37.818Z,100345.19
2022-12-09T23:49:05.111Z,100355.91
2022-12-09T23:51:33.013Z,100350.97
2022-12-09T23:54:02.218Z,100357.56
2022-12-09T23:56:31.876Z,100354.75
2022-12-09T23:59:04.136Z,100355.59
